Time,TemperatureF,DewpointF,PressureIn,WindDirection,WindDirectionDegrees,WindSpeedMPH,WindSpeedGustMPH,Humidity,HourlyPrecipIn,Conditions,Clouds,dailyrainin,SoftwareType,DateUTC
2013-07-06 00:02:00,52.2,40.3,29.64,ENE,63,0.0,5.0,64,0.00,,,0.00,meteohub,2013-07-06 07:02:00,
2013-07-06 00:07:00,52.2,41.2,29.64,East,93,2.0,5.0,66,0.00,,,0.00,meteohub,2013-07-06 07:07:00,
2013-07-06 00:12:00,52.2,40.8,29.64,East,93,1.0,5.0,65,0.00,,,0.00,meteohub,2013-07-06 07:12:00,
2013-07-06 00:17:00,52.0,41.4,29.64,East,93,0.0,5.0,67,0.00,,,0.00,meteohub,2013-07-06 07:17:00,
2013-07-06 00:22:00,51.6,40.6,29.64,East,93,0.0,5.0,66,0.00,,,0.00,meteohub,2013-07-06 07:22:00,
2013-07-06 00:27:00,51.1,41.7,29.64,South,186,0.0,4.0,70,0.00,,,0.00,meteohub,2013-07-06 07:27:00,
2013-07-06 00:32:00,50.5,41.5,29.64,South,186,0.0,4.0,71,0.00,,,0.00,meteohub,2013-07-06 07:32:00,
2013-07-06 00:42:00,49.8,41.5,29.65,West,259,1.0,1.0,73,0.00,,,0.00,meteohub,2013-07-06 07:42:00,
2013-07-06 00:47:00,49.5,40.8,29.65,West,259,3.0,5.0,72,0.00,,,0.00,meteohub,2013-07-06 07:47:00,
2013-07-06 00:52:00,50.2,40.5,29.65,West,259,0.0,5.0,69,0.00,,,0.00,meteohub,2013-07-06 07:52:00,
2013-07-06 00:57:00,50.4,41.7,29.66,West,259,0.0,3.0,72,0.00,,,0.00,meteohub,2013-07-06 07:57:00,
2013-07-06 01:02:00,50.2,41.5,29.66,West,259,0.0,3.0,72,0.00,,,0.00,meteohub,2013-07-06 08:02:00,
2013-07-06 01:07:00,49.8,41.9,29.66,West,259,0.0,3.0,74,0.00,,,0.00,meteohub,2013-07-06 08:07:00,
2013-07-06 01:12:00,49.6,40.6,29.67,West,259,0.0,3.0,71,0.00,,,0.00,meteohub,2013-07-06 08:12:00,
2013-07-06 01:17:00,50.2,41.2,29.67,West,259,0.0,3.0,71,0.00,,,0.00,meteohub,2013-07-06 08:17:00,
2013-07-06 01:22:00,50.4,40.6,29.67,West,259,0.0,3.0,69,0.00,,,0.00,meteohub,2013-07-06 08:22:00,
2013-07-06 01:27:00,50.5,39.6,29.68,WSW,258,0.0,1.0,66,0.00,,,0.00,meteohub,2013-07-06 08:27:00,
2013-07-06 01:32:00,50.9,40.3,29.68,West,259,0.0,1.0,67,0.00,,,0.00,meteohub,2013-07-06 08:32:00,
2013-07-06 01:37:00,51.1,39.7,29.69,WSW,258,0.0,1.0,65,0.00,,,0.00,meteohub,2013-07-06 08:37:00,
2013-07-06 01:42:00,51.4,41.2,29.70,West,259,0.0,1.0,68,0.00,,,0.00,meteohub,2013-07-06 08:42:00,
2013-07-06 01:47:00,51.6,42.4,29.70,SE,135,0.0,4.0,71,0.00,,,0.00,meteohub,2013-07-06 08:47:00,
2013-07-06 01:52:00,51.3,42.6,29.70,SE,135,3.0,4.0,72,0.00,,,0.00,meteohub,2013-07-06 08:52:00,
2013-07-06 01:57:00,51.1,40.8,29.70,SE,135,1.0,4.0,68,0.00,,,0.00,meteohub,2013-07-06 08:57:00,
2013-07-06 02:02:00,51.1,42.1,29.71,SE,135,1.0,3.0,71,0.00,,,0.00,meteohub,2013-07-06 09:02:00,
2013-07-06 02:07:00,51.1,42.8,29.71,SE,135,0.0,3.0,73,0.00,,,0.00,meteohub,2013-07-06 09:07:00,
2013-07-06 02:12:00,51.1,42.4,29.71,SE,135,0.0,3.0,72,0.00,,,0.00,meteohub,2013-07-06 09:12:00,
2013-07-06 02:17:00,51.1,41.7,29.71,SE,135,0.0,2.0,70,0.00,,,0.00,meteohub,2013-07-06 09:17:00,
2013-07-06 02:22:00,51.1,40.5,29.71,SE,135,0.0,1.0,67,0.00,,,0.00,meteohub,2013-07-06 09:22:00,
2013-07-06 02:27:00,51.4,40.5,29.70,SE,135,0.0,2.0,66,0.00,,,0.00,meteohub,2013-07-06 09:27:00,
2013-07-06 02:32:00,51.6,42.4,29.70,SE,135,0.0,2.0,71,0.00,,,0.00,meteohub,2013-07-06 09:32:00,
2013-07-06 02:37:00,51.4,41.2,29.70,SE,135,0.0,2.0,68,0.00,,,0.00,meteohub,2013-07-06 09:37:00,
2013-07-06 02:42:00,51.6,42.1,29.70,SE,135,0.0,2.0,70,0.00,,,0.00,meteohub,2013-07-06 09:42:00,
2013-07-06 02:47:00,51.6,41.4,29.70,SE,135,0.0,2.0,68,0.00,,,0.00,meteohub,2013-07-06 09:47:00,
2013-07-06 02:52:00,52.5,42.3,29.70,ESE,119,2.0,4.0,68,0.00,,,0.00,meteohub,2013-07-06 09:52:00,
2013-07-06 02:57:00,53.1,42.8,29.70,ESE,121,1.0,4.0,68,0.00,,,0.00,meteohub,2013-07-06 09:57:00,
2013-07-06 03:02:00,52.9,42.6,29.70,ESE,121,2.0,4.0,68,0.00,,,0.00,meteohub,2013-07-06 10:02:00,
2013-07-06 03:07:00,52.9,41.9,29.70,ESE,121,0.0,3.0,66,0.00,,,0.00,meteohub,2013-07-06 10:07:00,
2013-07-06 03:12:00,53.1,42.8,29.70,SE,146,0.0,3.0,68,0.00,,,0.00,meteohub,2013-07-06 10:12:00,
2013-07-06 03:17:00,52.7,41.7,29.70,SE,145,0.0,3.0,66,0.00,,,0.00,meteohub,2013-07-06 10:17:00,
2013-07-06 03:22:00,52.9,41.9,29.70,SE,145,0.0,3.0,66,0.00,,,0.00,meteohub,2013-07-06 10:22:00,
2013-07-06 03:27:00,53.1,43.2,29.69,SE,145,1.0,2.0,69,0.00,,,0.00,meteohub,2013-07-06 10:27:00,
2013-07-06 03:32:00,52.5,42.6,29.69,SE,145,1.0,2.0,69,0.00,,,0.00,meteohub,2013-07-06 10:32:00,
2013-07-06 03:37:00,52.2,42.3,29.69,SE,145,1.0,2.0,69,0.00,,,0.00,meteohub,2013-07-06 10:37:00,
2013-07-06 03:42:00,52.9,41.9,29.69,ESE,117,2.0,4.0,66,0.00,,,0.00,meteohub,2013-07-06 10:42:00,
2013-07-06 03:47:00,54.0,42.1,29.70,SSE,158,3.0,5.0,64,0.00,,,0.00,meteohub,2013-07-06 10:47:00,
2013-07-06 03:52:00,54.0,42.8,29.70,SSE,158,0.0,5.0,66,0.00,,,0.00,meteohub,2013-07-06 10:52:00,
2013-07-06 03:57:00,53.4,41.5,29.69,ESE,106,4.0,5.0,64,0.00,,,0.00,meteohub,2013-07-06 10:57:00,
2013-07-06 04:02:00,54.1,41.4,29.69,SE,128,1.0,6.0,62,0.00,,,0.00,meteohub,2013-07-06 11:02:00,
2013-07-06 04:07:00,54.9,41.7,29.70,East,94,1.0,8.0,61,0.00,,,0.00,meteohub,2013-07-06 11:07:00,
2013-07-06 04:12:00,55.0,41.9,29.70,SSE,157,2.0,8.0,61,0.00,,,0.00,meteohub,2013-07-06 11:12:00,
2013-07-06 04:17:00,53.8,42.3,29.70,SSE,157,3.0,8.0,65,0.00,,,0.00,meteohub,2013-07-06 11:17:00,
2013-07-06 04:22:00,52.5,41.9,29.70,SE,144,3.0,5.0,67,0.00,,,0.00,meteohub,2013-07-06 11:22:00,
2013-07-06 04:27:00,52.5,41.9,29.70,ESE,118,0.0,6.0,67,0.00,,,0.00,meteohub,2013-07-06 11:27:00,
2013-07-06 04:32:00,53.1,41.5,29.70,ESE,123,0.0,6.0,65,0.00,,,0.00,meteohub,2013-07-06 11:32:00,
2013-07-06 04:37:00,53.1,42.4,29.70,SE,139,1.0,5.0,67,0.00,,,0.00,meteohub,2013-07-06 11:37:00,
2013-07-06 04:42:00,52.3,42.4,29.71,SE,139,0.0,3.0,69,0.00,,,0.00,meteohub,2013-07-06 11:42:00,
2013-07-06 04:47:00,52.0,42.1,29.71,SE,145,0.0,2.0,69,0.00,,,0.00,meteohub,2013-07-06 11:47:00,
2013-07-06 04:52:00,52.0,42.1,29.71,SE,145,0.0,5.0,69,0.00,,,0.00,meteohub,2013-07-06 11:52:00,
2013-07-06 04:57:00,52.0,42.1,29.71,SE,145,0.0,5.0,69,0.00,,,0.00,meteohub,2013-07-06 11:57:00,
2013-07-06 05:02:00,51.6,41.7,29.71,SE,145,0.0,5.0,69,0.00,,,0.00,meteohub,2013-07-06 12:02:00,
2013-07-06 05:07:00,51.3,42.6,29.72,SE,145,0.0,2.0,72,0.00,,,0.00,meteohub,2013-07-06 12:07:00,
2013-07-06 05:12:00,50.9,42.3,29.72,SE,145,0.0,1.0,72,0.00,,,0.00,meteohub,2013-07-06 12:12:00,
2013-07-06 05:17:00,50.5,41.9,29.72,SE,145,0.0,1.0,72,0.00,,,0.00,meteohub,2013-07-06 12:17:00,
2013-07-06 05:22:00,50.2,41.9,29.72,SE,145,1.0,1.0,73,0.00,,,0.00,meteohub,2013-07-06 12:22:00,
2013-07-06 05:27:00,50.2,41.5,29.72,SE,145,0.0,2.0,72,0.00,,,0.00,meteohub,2013-07-06 12:27:00,
2013-07-06 05:32:00,50.2,42.3,29.72,SE,145,0.0,3.0,74,0.00,,,0.00,meteohub,2013-07-06 12:32:00,
2013-07-06 05:37:00,49.8,41.5,29.72,SE,145,0.0,3.0,73,0.00,,,0.00,meteohub,2013-07-06 12:37:00,
2013-07-06 05:42:00,49.6,42.4,29.73,SE,145,0.0,3.0,76,0.00,,,0.00,meteohub,2013-07-06 12:42:00,
2013-07-06 05:47:00,49.5,41.9,29.73,SE,145,1.0,2.0,75,0.00,,,0.00,meteohub,2013-07-06 12:47:00,
2013-07-06 05:52:00,49.5,42.3,29.73,SE,145,0.0,2.0,76,0.00,,,0.00,meteohub,2013-07-06 12:52:00,
2013-07-06 05:57:00,49.6,42.1,29.73,SE,145,0.0,2.0,75,0.00,,,0.00,meteohub,2013-07-06 12:57:00,
2013-07-06 06:02:00,50.2,42.3,29.73,SE,145,0.0,2.0,74,0.00,,,0.00,meteohub,2013-07-06 13:02:00,
2013-07-06 06:07:00,50.5,41.9,29.72,SE,145,0.0,2.0,72,0.00,,,0.00,meteohub,2013-07-06 13:07:00,
2013-07-06 06:17:00,52.0,42.8,29.73,SE,145,0.0,2.0,71,0.00,,,0.00,meteohub,2013-07-06 13:17:00,
2013-07-06 06:22:00,52.3,43.5,29.73,SE,145,0.0,2.0,72,0.00,,,0.00,meteohub,2013-07-06 13:22:00,
2013-07-06 06:27:00,53.2,42.6,29.73,SSE,153,1.0,2.0,67,0.00,,,0.00,meteohub,2013-07-06 13:27:00,
2013-07-06 06:32:00,54.9,43.0,29.72,SSE,151,1.0,7.0,64,0.00,,,0.00,meteohub,2013-07-06 13:32:00,
2013-07-06 06:37:00,56.5,42.3,29.73,SSE,165,1.0,7.0,59,0.00,,,0.00,meteohub,2013-07-06 13:37:00,
2013-07-06 06:42:00,57.6,42.4,29.73,ESE,111,5.0,10.0,57,0.00,,,0.00,meteohub,2013-07-06 13:42:00,
2013-07-06 06:47:00,58.5,42.4,29.73,ESE,111,4.0,10.0,55,0.00,,,0.00,meteohub,2013-07-06 13:47:00,
2013-07-06 06:52:00,59.2,42.1,29.73,SSE,148,3.0,10.0,53,0.00,,,0.00,meteohub,2013-07-06 13:52:00,
2013-07-06 06:57:00,60.1,42.4,29.73,ESE,123,3.0,9.0,52,0.00,,,0.00,meteohub,2013-07-06 13:57:00,
2013-07-06 07:02:00,61.0,42.8,29.73,ENE,76,2.0,8.0,51,0.00,,,0.00,meteohub,2013-07-06 14:02:00,
2013-07-06 07:07:00,61.3,42.6,29.73,ESE,112,3.0,8.0,50,0.00,,,0.00,meteohub,2013-07-06 14:07:00,
2013-07-06 07:12:00,62.2,43.3,29.73,ESE,121,1.0,7.0,50,0.00,,,0.00,meteohub,2013-07-06 14:12:00,
2013-07-06 07:17:00,62.8,43.9,29.73,SSE,153,2.0,6.0,50,0.00,,,0.00,meteohub,2013-07-06 14:17:00,
2013-07-06 07:22:00,63.0,44.1,29.73,SSE,151,2.0,6.0,50,0.00,,,0.00,meteohub,2013-07-06 14:22:00,
2013-07-06 07:27:00,63.1,45.7,29.73,SE,140,3.0,5.0,53,0.00,,,0.00,meteohub,2013-07-06 14:27:00,
2013-07-06 07:32:00,63.3,45.3,29.72,SSE,152,1.0,5.0,52,0.00,,,0.00,meteohub,2013-07-06 14:32:00,
2013-07-06 07:37:00,63.9,44.8,29.72,SE,134,0.0,5.0,50,0.00,,,0.00,meteohub,2013-07-06 14:37:00,
2013-07-06 07:42:00,64.2,44.6,29.73,SE,135,2.0,5.0,49,0.00,,,0.00,meteohub,2013-07-06 14:42:00,
2013-07-06 07:47:00,64.9,45.3,29.73,SE,126,2.0,3.0,49,0.00,,,0.00,meteohub,2013-07-06 14:47:00,
2013-07-06 07:52:00,65.5,44.8,29.73,SE,128,2.0,3.0,47,0.00,,,0.00,meteohub,2013-07-06 14:52:00,
2013-07-06 07:57:00,65.8,45.0,29.73,SE,135,0.0,3.0,47,0.00,,,0.00,meteohub,2013-07-06 14:57:00,
2013-07-06 08:02:00,66.6,44.6,29.72,SE,135,0.0,3.0,45,0.00,,,0.00,meteohub,2013-07-06 15:02:00,
2013-07-06 08:07:00,66.9,46.6,29.73,SE,135,0.0,3.0,48,0.00,,,0.00,meteohub,2013-07-06 15:07:00,
2013-07-06 08:12:00,67.3,45.1,29.72,SE,135,1.0,2.0,45,0.00,,,0.00,meteohub,2013-07-06 15:12:00,
2013-07-06 08:22:00,67.3,47.5,29.72,SW,220,2.0,3.0,49,0.00,,,0.00,meteohub,2013-07-06 15:22:00,
2013-07-06 08:27:00,66.9,47.7,29.72,SW,219,2.0,3.0,50,0.00,,,0.00,meteohub,2013-07-06 15:27:00,
2013-07-06 08:32:00,66.7,46.4,29.72,SW,220,3.0,3.0,48,0.00,,,0.00,meteohub,2013-07-06 15:32:00,
2013-07-06 08:37:00,66.7,46.4,29.72,SW,220,0.0,3.0,48,0.00,,,0.00,meteohub,2013-07-06 15:37:00,
2013-07-06 08:42:00,67.3,46.4,29.72,SW,219,1.0,3.0,47,0.00,,,0.00,meteohub,2013-07-06 15:42:00,
2013-07-06 08:47:00,67.8,45.1,29.71,SW,220,1.0,3.0,44,0.00,,,0.00,meteohub,2013-07-06 15:47:00,
2013-07-06 08:52:00,68.2,46.6,29.71,SW,220,2.0,2.0,46,0.00,,,0.00,meteohub,2013-07-06 15:52:00,
2013-07-06 09:02:00,68.9,44.2,29.71,SW,220,1.0,4.0,41,0.00,,,0.00,meteohub,2013-07-06 16:02:00,
2013-07-06 09:12:00,70.0,44.6,29.71,NW,308,4.0,4.0,40,0.00,,,0.00,meteohub,2013-07-06 16:12:00,
2013-07-06 09:22:00,70.9,42.6,29.70,NE,46,1.0,7.0,36,0.00,,,0.00,meteohub,2013-07-06 16:22:00,
2013-07-06 09:27:00,71.2,43.7,29.70,NNW,348,2.0,7.0,37,0.00,,,0.00,meteohub,2013-07-06 16:27:00,
2013-07-06 09:32:00,71.1,43.5,29.71,West,281,2.0,10.0,37,0.00,,,0.00,meteohub,2013-07-06 16:32:00,
2013-07-06 09:37:00,70.9,45.3,29.70,NW,316,3.0,10.0,40,0.00,,,0.00,meteohub,2013-07-06 16:37:00,
2013-07-06 09:42:00,71.2,41.4,29.71,NW,310,4.0,10.0,34,0.00,,,0.00,meteohub,2013-07-06 16:42:00,
2013-07-06 09:47:00,71.2,43.0,29.71,NW,315,5.0,12.0,36,0.00,,,0.00,meteohub,2013-07-06 16:47:00,
2013-07-06 09:52:00,71.4,43.2,29.71,NNW,332,5.0,12.0,36,0.00,,,0.00,meteohub,2013-07-06 16:52:00,
2013-07-06 09:57:00,71.6,43.2,29.71,NW,311,6.0,12.0,36,0.00,,,0.00,meteohub,2013-07-06 16:57:00,
2013-07-06 10:02:00,72.0,42.8,29.70,NW,325,3.0,10.0,35,0.00,,,0.00,meteohub,2013-07-06 17:02:00,
2013-07-06 10:17:00,72.9,44.4,29.70,WNW,298,1.0,10.0,36,0.00,,,0.00,meteohub,2013-07-06 17:17:00,
2013-07-06 10:22:00,73.0,44.4,29.70,NW,305,3.0,10.0,36,0.00,,,0.00,meteohub,2013-07-06 17:22:00,
2013-07-06 10:52:00,73.8,41.2,29.70,NNE,21,5.0,13.0,31,0.00,,,0.00,meteohub,2013-07-06 17:52:00,
2013-07-06 10:57:00,73.2,42.4,29.70,NW,307,9.0,12.0,33,0.00,,,0.00,meteohub,2013-07-06 17:57:00,
2013-07-06 11:02:00,73.2,43.9,29.70,NE,46,5.0,14.0,35,0.00,,,0.00,meteohub,2013-07-06 18:02:00,
2013-07-06 11:07:00,73.8,45.1,29.71,NW,313,9.0,14.0,36,0.00,,,0.00,meteohub,2013-07-06 18:07:00,
2013-07-06 11:27:00,73.2,44.6,29.70,NW,313,7.0,11.0,36,0.00,,,0.00,meteohub,2013-07-06 18:27:00,
2013-07-06 11:37:00,73.9,44.6,29.70,NW,308,7.0,13.0,35,0.00,,,0.00,meteohub,2013-07-06 18:37:00,
2013-07-06 11:42:00,73.9,43.0,29.70,NW,325,5.0,13.0,33,0.00,,,0.00,meteohub,2013-07-06 18:42:00,
2013-07-06 11:57:00,74.8,42.3,29.69,NNW,340,8.0,15.0,31,0.00,,,0.00,meteohub,2013-07-06 18:57:00,
2013-07-06 12:02:00,75.0,44.8,29.70,NW,316,8.0,15.0,34,0.00,,,0.00,meteohub,2013-07-06 19:02:00,
2013-07-06 12:07:00,74.5,43.5,29.70,WNW,303,11.0,11.0,33,0.00,,,0.00,meteohub,2013-07-06 19:07:00,
2013-07-06 12:12:00,74.1,44.8,29.69,NW,325,1.0,13.0,35,0.00,,,0.00,meteohub,2013-07-06 19:12:00,
2013-07-06 12:22:00,74.1,46.9,29.69,NW,317,10.0,14.0,38,0.00,,,0.00,meteohub,2013-07-06 19:22:00,
2013-07-06 12:37:00,74.8,46.0,29.68,NW,315,9.0,15.0,36,0.00,,,0.00,meteohub,2013-07-06 19:37:00,
2013-07-06 12:47:00,75.9,42.3,29.68,NW,317,2.0,12.0,30,0.00,,,0.00,meteohub,2013-07-06 19:47:00,
2013-07-06 13:02:00,76.1,45.7,29.67,North,5,6.0,14.0,34,0.00,,,0.00,meteohub,2013-07-06 20:02:00,
2013-07-06 13:12:00,76.5,43.5,29.66,NW,309,5.0,15.0,31,0.00,,,0.00,meteohub,2013-07-06 20:12:00,
2013-07-06 13:17:00,76.8,41.2,29.66,East,81,3.0,16.0,28,0.00,,,0.00,meteohub,2013-07-06 20:17:00,
2013-07-06 13:22:00,77.5,42.8,29.66,NW,304,10.0,16.0,29,0.00,,,0.00,meteohub,2013-07-06 20:22:00,
2013-07-06 13:27:00,76.8,44.8,29.66,ENE,57,2.0,16.0,32,0.00,,,0.00,meteohub,2013-07-06 20:27:00,
2013-07-06 13:47:00,76.8,43.0,29.65,NNE,22,5.0,17.0,30,0.00,,,0.00,meteohub,2013-07-06 20:47:00,
2013-07-06 13:52:00,77.2,42.4,29.65,NNE,22,7.0,17.0,29,0.00,,,0.00,meteohub,2013-07-06 20:52:00,
2013-07-06 14:02:00,76.3,42.6,29.65,NW,313,4.0,16.0,30,0.00,,,0.00,meteohub,2013-07-06 21:02:00,
2013-07-06 14:12:00,77.9,44.8,29.64,NW,323,7.0,16.0,31,0.00,,,0.00,meteohub,2013-07-06 21:12:00,
2013-07-06 14:17:00,77.5,43.7,29.64,NE,49,6.0,12.0,30,0.00,,,0.00,meteohub,2013-07-06 21:17:00,
2013-07-06 14:22:00,76.5,42.8,29.64,WNW,300,8.0,15.0,30,0.00,,,0.00,meteohub,2013-07-06 21:22:00,
2013-07-06 14:27:00,76.6,42.1,29.64,NW,304,3.0,15.0,29,0.00,,,0.00,meteohub,2013-07-06 21:27:00,
2013-07-06 14:32:00,76.8,44.8,29.63,NNW,335,6.0,15.0,32,0.00,,,0.00,meteohub,2013-07-06 21:32:00,
2013-07-06 14:42:00,76.1,44.1,29.63,NW,308,7.0,17.0,32,0.00,,,0.00,meteohub,2013-07-06 21:42:00,
2013-07-06 14:52:00,77.0,41.4,29.63,NNE,26,6.0,17.0,28,0.00,,,0.00,meteohub,2013-07-06 21:52:00,
2013-07-06 14:57:00,77.5,41.0,29.63,North,5,5.0,12.0,27,0.00,,,0.00,meteohub,2013-07-06 21:57:00,
2013-07-06 15:02:00,77.7,43.0,29.63,NW,314,11.0,12.0,29,0.00,,,0.00,meteohub,2013-07-06 22:02:00,
2013-07-06 15:07:00,77.5,39.9,29.62,NW,312,7.0,13.0,26,0.00,,,0.00,meteohub,2013-07-06 22:07:00,
2013-07-06 15:27:00,77.7,40.1,29.62,NW,314,6.0,17.0,26,0.00,,,0.00,meteohub,2013-07-06 22:27:00,
2013-07-06 15:32:00,77.7,41.0,29.62,NW,311,9.0,15.0,27,0.00,,,0.00,meteohub,2013-07-06 22:32:00,
2013-07-06 15:37:00,77.9,40.3,29.62,NW,311,9.0,15.0,26,0.00,,,0.00,meteohub,2013-07-06 22:37:00,
2013-07-06 15:47:00,78.4,40.6,29.61,NW,308,2.0,14.0,26,0.00,,,0.00,meteohub,2013-07-06 22:47:00,
2013-07-06 15:57:00,78.3,42.4,29.61,NW,317,6.0,12.0,28,0.00,,,0.00,meteohub,2013-07-06 22:57:00,
2013-07-06 16:02:00,77.4,41.7,29.61,NW,304,6.0,12.0,28,0.00,,,0.00,meteohub,2013-07-06 23:02:00,
2013-07-06 16:07:00,77.5,41.9,29.61,NW,311,9.0,15.0,28,0.00,,,0.00,meteohub,2013-07-06 23:07:00,
2013-07-06 16:12:00,77.5,39.9,29.61,NW,312,12.0,15.0,26,0.00,,,0.00,meteohub,2013-07-06 23:12:00,
2013-07-06 16:22:00,78.4,36.5,29.61,NNW,331,3.0,14.0,22,0.00,,,0.00,meteohub,2013-07-06 23:22:00,
2013-07-06 16:32:00,78.3,36.3,29.61,NNE,26,2.0,10.0,22,0.00,,,0.00,meteohub,2013-07-06 23:32:00,
2013-07-06 16:37:00,78.1,36.1,29.61,NNW,342,7.0,9.0,22,0.00,,,0.00,meteohub,2013-07-06 23:37:00,
2013-07-06 16:42:00,77.7,39.0,29.62,NNW,336,4.0,9.0,25,0.00,,,0.00,meteohub,2013-07-06 23:42:00,
2013-07-06 16:57:00,76.8,39.4,29.61,NNE,26,3.0,13.0,26,0.00,,,0.00,meteohub,2013-07-06 23:57:00,
2013-07-06 17:02:00,76.6,39.2,29.61,North,5,6.0,10.0,26,0.00,,,0.00,meteohub,2013-07-07 00:02:00,
2013-07-06 17:07:00,76.8,40.3,29.61,NNW,347,2.0,11.0,27,0.00,,,0.00,meteohub,2013-07-07 00:07:00,
2013-07-06 17:17:00,76.5,39.9,29.61,NNE,15,3.0,12.0,27,0.00,,,0.00,meteohub,2013-07-07 00:17:00,
2013-07-06 17:22:00,76.6,40.1,29.61,WNW,300,5.0,12.0,27,0.00,,,0.00,meteohub,2013-07-07 00:22:00,
2013-07-06 17:27:00,77.0,40.5,29.62,North,9,5.0,11.0,27,0.00,,,0.00,meteohub,2013-07-07 00:27:00,
2013-07-06 17:32:00,76.8,40.3,29.62,NW,307,4.0,11.0,27,0.00,,,0.00,meteohub,2013-07-07 00:32:00,
2013-07-06 17:37:00,75.7,43.0,29.62,WNW,298,6.0,10.0,31,0.00,,,0.00,meteohub,2013-07-07 00:37:00,
2013-07-06 17:42:00,74.1,41.5,29.62,NW,318,1.0,10.0,31,0.00,,,0.00,meteohub,2013-07-07 00:42:00,
2013-07-06 17:47:00,73.4,42.6,29.62,NW,315,6.0,9.0,33,0.00,,,0.00,meteohub,2013-07-07 00:47:00,
2013-07-06 17:57:00,72.1,44.4,29.62,NW,304,6.0,11.0,37,0.00,,,0.00,meteohub,2013-07-07 00:57:00,
2013-07-06 18:02:00,72.0,43.5,29.62,WNW,286,9.0,11.0,36,0.00,,,0.00,meteohub,2013-07-07 01:02:00,
2013-07-06 18:07:00,72.0,43.5,29.62,NNW,343,6.0,12.0,36,0.00,,,0.00,meteohub,2013-07-07 01:07:00,
2013-07-06 18:12:00,72.1,43.0,29.62,NW,315,5.0,12.0,35,0.00,,,0.00,meteohub,2013-07-07 01:12:00,
2013-07-06 18:17:00,72.0,44.2,29.62,NW,311,7.0,12.0,37,0.00,,,0.00,meteohub,2013-07-07 01:17:00,
2013-07-06 18:27:00,71.4,43.7,29.62,NW,323,4.0,11.0,37,0.00,,,0.00,meteohub,2013-07-07 01:27:00,
2013-07-06 18:32:00,71.4,43.2,29.62,NW,315,3.0,7.0,36,0.00,,,0.00,meteohub,2013-07-07 01:32:00,
2013-07-06 18:47:00,71.2,43.0,29.63,NW,311,0.0,8.0,36,0.00,,,0.00,meteohub,2013-07-07 01:47:00,
2013-07-06 18:52:00,71.2,43.0,29.63,NW,311,0.0,8.0,36,0.00,,,0.00,meteohub,2013-07-07 01:52:00,
2013-07-06 19:02:00,71.2,41.4,29.64,NW,318,2.0,6.0,34,0.00,,,0.00,meteohub,2013-07-07 02:02:00,
2013-07-06 19:07:00,71.2,40.6,29.64,NW,321,0.0,6.0,33,0.00,,,0.00,meteohub,2013-07-07 02:07:00,
2013-07-06 19:17:00,71.2,40.6,29.64,NW,321,0.0,4.0,33,0.00,,,0.00,meteohub,2013-07-07 02:17:00,
2013-07-06 19:22:00,71.2,40.6,29.64,NW,321,1.0,3.0,33,0.00,,,0.00,meteohub,2013-07-07 02:22:00,
2013-07-06 19:37:00,71.2,41.4,29.65,NW,321,0.0,4.0,34,0.00,,,0.00,meteohub,2013-07-07 02:37:00,
2013-07-06 19:42:00,71.2,41.4,29.65,NW,321,0.0,2.0,34,0.00,,,0.00,meteohub,2013-07-07 02:42:00,
2013-07-06 19:47:00,71.2,40.6,29.65,NW,321,0.0,2.0,33,0.00,,,0.00,meteohub,2013-07-07 02:47:00,
2013-07-06 19:57:00,70.5,42.3,29.65,NW,321,0.0,2.0,36,0.00,,,0.00,meteohub,2013-07-07 02:57:00,
2013-07-06 20:02:00,70.3,42.8,29.66,NW,321,0.0,1.0,37,0.00,,,0.00,meteohub,2013-07-07 03:02:00,
2013-07-06 20:12:00,69.6,45.0,29.66,NW,321,0.0,0.0,41,0.00,,,0.00,meteohub,2013-07-07 03:12:00,
2013-07-06 20:17:00,68.7,43.3,29.67,NW,321,0.0,1.0,40,0.00,,,0.00,meteohub,2013-07-07 03:17:00,
2013-07-06 20:22:00,68.4,42.4,29.67,NW,321,0.0,2.0,39,0.00,,,0.00,meteohub,2013-07-07 03:22:00,
2013-07-06 21:02:00,68.7,42.8,29.69,SSE,152,1.0,13.0,39,0.00,,,0.00,meteohub,2013-07-07 04:02:00,
2013-07-06 21:07:00,68.4,42.4,29.69,ESE,110,8.0,13.0,39,0.00,,,0.00,meteohub,2013-07-07 04:07:00,
2013-07-06 21:12:00,68.4,42.4,29.69,SE,128,5.0,13.0,39,0.00,,,0.00,meteohub,2013-07-07 04:12:00,
2013-07-06 21:17:00,68.4,42.4,29.69,ESE,107,12.0,13.0,39,0.00,,,0.00,meteohub,2013-07-07 04:17:00,
2013-07-06 21:27:00,68.2,42.3,29.70,East,95,10.0,13.0,39,0.00,,,0.00,meteohub,2013-07-07 04:27:00,
2013-07-06 21:32:00,68.0,42.1,29.70,East,99,3.0,13.0,39,0.00,,,0.00,meteohub,2013-07-07 04:32:00,
2013-07-06 21:37:00,67.8,41.9,29.70,ESE,109,2.0,13.0,39,0.00,,,0.00,meteohub,2013-07-07 04:37:00,
2013-07-06 21:42:00,67.8,41.9,29.70,ESE,104,3.0,11.0,39,0.00,,,0.00,meteohub,2013-07-07 04:42:00,
2013-07-06 21:47:00,67.8,41.4,29.70,ESE,105,5.0,9.0,38,0.00,,,0.00,meteohub,2013-07-07 04:47:00,
2013-07-06 21:52:00,67.8,41.4,29.70,SE,124,3.0,10.0,38,0.00,,,0.00,meteohub,2013-07-07 04:52:00,
2013-07-06 21:57:00,67.3,42.8,29.70,SSE,157,1.0,10.0,41,0.00,,,0.00,meteohub,2013-07-07 04:57:00,
2013-07-06 22:02:00,66.7,43.0,29.70,ESE,117,2.0,10.0,42,0.00,,,0.00,meteohub,2013-07-07 05:02:00,
2013-07-06 22:12:00,65.8,41.5,29.71,South,172,1.0,7.0,41,0.00,,,0.00,meteohub,2013-07-07 05:12:00,
2013-07-06 22:17:00,65.8,41.5,29.71,ESE,105,1.0,7.0,41,0.00,,,0.00,meteohub,2013-07-07 05:17:00,
2013-07-06 22:22:00,66.0,41.7,29.72,SE,136,0.0,7.0,41,0.00,,,0.00,meteohub,2013-07-07 05:22:00,
2013-07-06 22:27:00,66.0,44.1,29.73,NW,317,1.0,3.0,45,0.00,,,0.00,meteohub,2013-07-07 05:27:00,
2013-07-06 22:32:00,65.5,42.4,29.74,NNW,329,0.0,5.0,43,0.00,,,0.00,meteohub,2013-07-07 05:32:00,
2013-07-06 22:37:00,65.5,43.0,29.74,NW,324,0.0,5.0,44,0.00,,,0.00,meteohub,2013-07-07 05:37:00,
2013-07-06 22:42:00,65.3,42.8,29.74,NW,324,1.0,5.0,44,0.00,,,0.00,meteohub,2013-07-07 05:42:00,
2013-07-06 22:47:00,65.1,42.1,29.74,NE,35,2.0,3.0,43,0.00,,,0.00,meteohub,2013-07-07 05:47:00,
2013-07-06 22:52:00,65.3,41.5,29.74,ENE,61,1.0,3.0,42,0.00,,,0.00,meteohub,2013-07-07 05:52:00,
2013-07-06 22:57:00,65.3,45.7,29.74,SSE,165,1.0,3.0,49,0.00,,,0.00,meteohub,2013-07-07 05:57:00,
2013-07-06 23:02:00,64.2,45.7,29.74,SSE,165,0.0,3.0,51,0.00,,,0.00,meteohub,2013-07-07 06:02:00,
2013-07-06 23:07:00,63.1,46.8,29.74,SSE,165,0.0,3.0,55,0.00,,,0.00,meteohub,2013-07-07 06:07:00,
2013-07-06 23:17:00,63.0,41.9,29.73,SE,134,0.0,4.0,46,0.00,,,0.00,meteohub,2013-07-07 06:17:00,
2013-07-06 23:22:00,63.1,42.6,29.73,SSW,203,0.0,4.0,47,0.00,,,0.00,meteohub,2013-07-07 06:22:00,
2013-07-06 23:27:00,63.1,44.2,29.73,SSW,203,1.0,4.0,50,0.00,,,0.00,meteohub,2013-07-07 06:27:00,
2013-07-06 23:32:00,63.1,44.2,29.74,SSW,207,0.0,3.0,50,0.00,,,0.00,meteohub,2013-07-07 06:32:00,
2013-07-06 23:37:00,63.1,44.2,29.73,NW,305,0.0,3.0,50,0.00,,,0.00,meteohub,2013-07-07 06:37:00,
2013-07-06 23:42:00,63.7,43.7,29.73,NW,306,0.0,4.0,48,0.00,,,0.00,meteohub,2013-07-07 06:42:00,
2013-07-06 23:47:00,64.0,43.9,29.73,NW,313,0.0,4.0,48,0.00,,,0.00,meteohub,2013-07-07 06:47:00,
2013-07-06 23:52:00,64.6,43.9,29.73,NW,316,0.0,4.0,47,0.00,,,0.00,meteohub,2013-07-07 06:52:00,
2013-07-06 23:57:00,64.8,43.5,29.73,NW,317,0.0,9.0,46,0.00,,,0.00,meteohub,2013-07-07 06:57:00,